Time;durP1;ratioP1;P1;durP2;ratioP2;P2;SDS_P1;SDS_P2;PMS_P1;PMS_P2;Temp;Humidity;BMP_temperature;BMP_pressure;BME280_temperature;BME280_humidity;BME280_pressure;Samples;Min_cycle;Max_cycle;Signal;HPM_P1;HPM_P2
2022/01/30 00:01:45;;;;;;;19.07;3.13;;;6.90;99.90;;;;;;5031851;28;20029;-78
2022/01/30 00:04:11;;;;;;;27.63;3.47;;;7.00;99.90;;;;;;5032655;28;20112;-80
2022/01/30 00:06:37;;;;;;;17.43;5.93;;;6.90;99.90;;;;;;5031771;28;20532;-79
2022/01/30 00:09:05;;;;;;;18.80;4.70;;;;;;;;;;5032076;28;20039;-79
2022/01/30 00:11:35;;;;;;;20.97;4.27;;;;;;;;;;5014372;28;20029;-79
2022/01/30 00:14:02;;;;;;;23.77;3.77;;;6.70;99.90;;;;;;5031258;28;20536;-78
2022/01/30 00:16:32;;;;;;;16.10;4.30;;;;;;;;;;5032038;28;20025;-78
2022/01/30 00:19:18;;;;;;;22.47;3.90;;;6.80;99.90;;;;;;5032002;28;20044;-78
2022/01/30 00:21:49;;;;;;;24.87;3.30;;;7.20;99.90;;;;;;5013840;28;20539;-79
2022/01/30 00:24:23;;;;;;;30.63;4.80;;;;;;;;;;5013967;28;20099;-77
2022/01/30 00:26:50;;;;;;;18.90;3.17;;;6.90;99.90;;;;;;5031626;28;20025;-79
2022/01/30 00:29:16;;;;;;;28.93;5.93;;;;;;;;;;5026516;28;20026;-78
2022/01/30 00:31:42;;;;;;;22.57;3.50;;;;;;;;;;5031247;28;20456;-78
2022/01/30 00:34:08;;;;;;;20.90;3.97;;;;;;;;;;5027809;28;20371;-78
2022/01/30 00:36:34;;;;;;;27.47;3.97;;;;;;;;;;5014061;28;20030;-78
2022/01/30 00:39:00;;;;;;;25.90;3.90;;;6.90;99.90;;;;;;5031162;28;20037;-77
2022/01/30 00:41:27;;;;;;;18.73;4.63;;;;;;;;;;5013753;28;20029;-77
2022/01/30 00:43:53;;;;;;;21.03;3.63;;;7.00;99.90;;;;;;5028133;28;20061;-78
2022/01/30 00:46:19;;;;;;;30.10;5.77;;;;;;;;;;5032021;28;20025;-79
2022/01/30 00:48:44;;;;;;;18.37;3.93;;;6.80;99.90;;;;;;5031279;28;20033;-79
2022/01/30 00:51:10;;;;;;;27.43;6.00;;;;;;;;;;5013821;28;20045;-78
2022/01/30 00:53:36;;;;;;;28.47;5.43;;;;;;;;;;5013130;28;20474;-78
2022/01/30 00:56:03;;;;;;;20.47;4.17;;;6.80;99.90;;;;;;5013900;28;20522;-78
2022/01/30 00:58:29;;;;;;;22.73;5.63;;;;;;;;;;5031514;28;20040;-78
2022/01/30 01:00:54;;;;;;;24.40;4.77;;;6.80;99.90;;;;;;5027152;28;20026;-78
2022/01/30 01:03:20;;;;;;;24.03;4.37;;;6.70;99.90;;;;;;5013841;28;20034;-78
2022/01/30 01:05:46;;;;;;;18.37;3.20;;;6.90;99.90;;;;;;5031009;28;20026;-78
2022/01/30 01:08:21;;;;;;;20.10;4.23;;;;;;;;;;5031024;28;20033;-78
2022/01/30 01:10:57;;;;;;;20.63;3.67;;;;;;;;;;5013072;28;20467;-79
2022/01/30 01:13:50;;;;;;;19.30;3.07;;;;;;;;;;5026155;28;20117;-78
2022/01/30 01:24:07;;;;;;;21.60;3.97;;;;;;;;;;5031340;28;19905;-78
2022/01/30 01:26:34;;;;;;;19.00;4.50;;;6.90;99.90;;;;;;5030951;28;20020;-79
2022/01/30 01:29:00;;;;;;;16.00;3.43;;;6.90;99.90;;;;;;5030718;28;20030;-78
2022/01/30 01:31:26;;;;;;;18.43;3.80;;;;;;;;;;5024824;28;20026;-78
2022/01/30 01:36:26;;;;;;;16.37;3.93;;;7.30;99.90;;;;;;5030767;28;20021;-77
2022/01/30 01:38:52;;;;;;;17.77;4.10;;;7.00;99.90;;;;;;5012483;28;20064;-77
2022/01/30 01:41:20;;;;;;;28.70;3.53;;;7.30;99.90;;;;;;5013109;28;20033;-77
2022/01/30 01:43:51;;;;;;;19.77;4.03;;;7.10;99.90;;;;;;5011641;28;20033;-78
2022/01/30 01:46:25;;;;;;;22.17;3.43;;;7.00;99.90;;;;;;5030877;28;20467;-78
2022/01/30 01:48:53;;;;;;;25.57;4.33;;;7.30;99.90;;;;;;5030277;28;20095;-78
2022/01/30 01:51:24;;;;;;;20.40;3.13;;;6.90;99.90;;;;;;5030057;28;20044;-78
2022/01/30 01:53:56;;;;;;;23.23;4.13;;;6.90;99.90;;;;;;5029732;28;20474;-79
2022/01/30 01:56:22;;;;;;;25.30;4.37;;;;;;;;;;5030714;28;20178;-78
2022/01/30 01:58:48;;;;;;;20.87;3.83;;;6.80;99.90;;;;;;5024654;28;20043;-79
2022/01/30 02:01:14;;;;;;;14.27;3.13;;;6.60;99.90;;;;;;5030438;28;20018;-79
2022/01/30 02:03:41;;;;;;;27.27;5.40;;;6.70;99.90;;;;;;5030148;28;20048;-79
2022/01/30 02:06:10;;;;;;;18.30;3.60;;;;;;;;;;5012434;28;20588;-78
2022/01/30 02:08:43;;;;;;;21.17;3.63;;;;;;;;;;5029940;28;20021;-78
2022/01/30 02:25:20;;;;;;;17.43;4.03;;;6.90;99.90;;;;;;5029026;28;20588;-78
2022/01/30 02:27:05;;;;;;;18.37;3.37;;;;;;;;;;5015906;28;20034;-79
2022/01/30 02:29:31;;;;;;;21.37;4.40;;;6.80;99.90;;;;;;5012342;28;20049;-78
2022/01/30 02:31:59;;;;;;;22.27;4.30;;;6.90;99.90;;;;;;5028228;28;20478;-77
2022/01/30 02:34:31;;;;;;;26.60;4.60;;;7.00;99.90;;;;;;5011755;28;20052;-78
2022/01/30 02:36:58;;;;;;;14.73;3.87;;;7.00;99.90;;;;;;5029713;28;20025;-77
2022/01/30 02:39:25;;;;;;;10.93;2.30;;;;;;;;;;5023913;28;20510;-78
2022/01/30 02:41:51;;;;;;;21.30;4.83;;;;;;;;;;5023221;28;20025;-78
2022/01/30 02:44:28;;;;;;;19.47;3.77;;;6.70;99.90;;;;;;5005918;28;20104;-77
2022/01/30 02:46:58;;;;;;;16.77;2.53;;;6.50;99.90;;;;;;5029418;28;20013;-78
2022/01/30 02:52:04;;;;;;;17.83;3.90;;;6.40;99.90;;;;;;5029340;28;20121;-78
2022/01/30 02:54:31;;;;;;;15.83;3.67;;;6.30;99.90;;;;;;5026711;28;20029;-79
2022/01/30 02:56:57;;;;;;;24.03;4.50;;;6.20;99.90;;;;;;5029556;28;20099;-79
2022/01/30 02:59:23;;;;;;;19.77;4.23;;;6.20;99.90;;;;;;5029666;28;20044;-78
2022/01/30 03:01:49;;;;;;;14.50;3.10;;;6.20;99.90;;;;;;5029161;28;20030;-78
2022/01/30 03:04:16;;;;;;;26.53;4.77;;;6.30;99.90;;;;;;5028670;28;20037;-78
2022/01/30 03:06:42;;;;;;;22.13;4.77;;;6.20;99.90;;;;;;5031135;28;20359;-79
2022/01/30 03:09:09;;;;;;;24.57;3.23;;;6.10;99.90;;;;;;5030020;28;20029;-78
2022/01/30 03:11:35;;;;;;;13.30;2.77;;;;;;;;;;5031475;28;20037;-78
2022/01/30 03:14:01;;;;;;;23.80;3.90;;;;;;;;;;5031714;28;20611;-78
2022/01/30 03:16:27;;;;;;;19.53;3.57;;;;;;;;;;5031640;28;20025;-78
2022/01/30 03:18:53;;;;;;;21.37;3.63;;;6.20;99.90;;;;;;5030698;28;20133;-80
2022/01/30 03:21:19;;;;;;;15.53;2.93;;;;;;;;;;5033174;28;20104;-78
2022/01/30 03:23:45;;;;;;;18.40;4.80;;;6.30;99.90;;;;;;5032957;28;20029;-78
2022/01/30 03:26:12;;;;;;;11.00;1.87;;;6.20;99.90;;;;;;5015780;28;20029;-79
2022/01/30 03:28:40;;;;;;;16.50;2.77;;;;;;;;;;5032776;28;20071;-78
2022/01/30 03:31:08;;;;;;;18.00;3.50;;;6.10;99.90;;;;;;5015013;28;20030;-78
2022/01/30 03:33:34;;;;;;;21.40;3.73;;;6.20;99.90;;;;;;5033193;28;20030;-78
2022/01/30 03:36:00;;;;;;;15.47;2.80;;;;;;;;;;5032943;28;20025;-78
2022/01/30 03:38:26;;;;;;;15.07;2.10;;;5.90;99.90;;;;;;5027735;28;20128;-78
2022/01/30 03:40:52;;;;;;;9.13;2.47;;;6.00;99.90;;;;;;5026194;28;20505;-79
2022/01/30 03:43:18;;;;;;;12.87;2.87;;;;;;;;;;5032952;28;20028;-78
2022/01/30 03:45:45;;;;;;;15.67;3.07;;;6.00;99.90;;;;;;5014339;28;20433;-79
2022/01/30 03:48:13;;;;;;;19.80;2.60;;;;;;;;;;5033091;28;20029;-78
2022/01/30 03:50:39;;;;;;;16.10;2.67;;;;;;;;;;5032220;28;20059;-78
2022/01/30 03:53:05;;;;;;;13.50;2.93;;;5.80;99.90;;;;;;5030560;28;20025;-78
2022/01/30 03:55:30;;;;;;;12.83;2.53;;;;;;;;;;5032765;28;20037;-78
2022/01/30 03:57:56;;;;;;;14.00;3.30;;;5.70;99.90;;;;;;5014536;28;20493;-78
2022/01/30 04:00:23;;;;;;;11.40;1.67;;;;;;;;;;5032299;28;20090;-79
2022/01/30 04:02:49;;;;;;;16.47;2.27;;;;;;;;;;5032241;28;20018;-79
2022/01/30 04:05:15;;;;;;;13.73;2.13;;;5.50;99.90;;;;;;5032871;28;20108;-79
2022/01/30 04:07:40;;;;;;;14.23;2.50;;;5.50;99.90;;;;;;5030724;28;20127;-79
2022/01/30 04:10:07;;;;;;;20.27;2.57;;;5.50;99.90;;;;;;5014851;28;20033;-79
2022/01/30 04:12:33;;;;;;;13.80;2.43;;;;;;;;;;5014715;28;20467;-79
2022/01/30 04:14:59;;;;;;;15.30;2.53;;;;;;;;;;5012061;28;20173;-79
2022/01/30 04:17:25;;;;;;;8.43;1.90;;;5.30;99.90;;;;;;5031997;28;20033;-78
2022/01/30 04:19:51;;;;;;;7.93;2.00;;;5.50;99.90;;;;;;5014121;28;20045;-79
2022/01/30 04:22:17;;;;;;;12.87;2.63;;;;;;;;;;5008877;28;20029;-78
2022/01/30 04:24:42;;;;;;;21.23;3.00;;;5.30;99.90;;;;;;5013847;28;20048;-79
2022/01/30 04:27:11;;;;;;;17.87;3.03;;;5.40;99.90;;;;;;5014527;28;20514;-79
2022/01/30 04:29:37;;;;;;;19.27;3.37;;;;;;;;;;5031393;28;20030;-79
2022/01/30 04:32:03;;;;;;;22.00;2.63;;;;;;;;;;5014586;28;20076;-79
2022/01/30 04:34:30;;;;;;;20.40;3.00;;;4.50;99.90;;;;;;5014523;28;20026;-79
2022/01/30 04:37:04;;;;;;;14.27;2.83;;;5.30;99.90;;;;;;5027933;28;20022;-79
2022/01/30 04:42:22;;;;;;;14.83;2.80;;;5.50;99.90;;;;;;5032014;28;20029;-78
2022/01/30 04:53:35;;;;;;;14.47;2.53;;;5.80;99.90;;;;;;5032261;28;19916;-79
2022/01/30 04:56:41;;;;;;;16.30;2.77;;;;;;;;;;5013845;28;20030;-78
2022/01/30 04:59:10;;;;;;;12.93;1.80;;;5.60;99.90;;;;;;5030536;28;20060;-78
2022/01/30 05:01:51;;;;;;;22.10;3.03;;;5.60;99.90;;;;;;5026683;28;20118;-78
2022/01/30 05:04:40;;;;;;;16.73;2.50;;;;;;;;;;5012307;28;20041;-77
2022/01/30 05:09:32;;;;;;;13.27;2.17;;;5.80;99.90;;;;;;5031294;28;20029;-78
2022/01/30 05:11:58;;;;;;;17.20;2.60;;;5.80;99.90;;;;;;5031049;28;20083;-78
2022/01/30 05:14:27;;;;;;;11.60;2.27;;;5.80;99.90;;;;;;5030957;28;20435;-78
2022/01/30 05:16:53;;;;;;;13.07;1.97;;;5.80;99.90;;;;;;5030589;28;20029;-78
2022/01/30 05:19:18;;;;;;;18.10;2.07;;;5.60;99.90;;;;;;5025376;28;20395;-78
2022/01/30 05:21:44;;;;;;;21.93;3.03;;;5.80;99.90;;;;;;5012206;28;20125;-78
2022/01/30 05:24:10;;;;;;;16.93;2.97;;;5.70;99.90;;;;;;5024789;28;20129;-78
2022/01/30 05:26:44;;;;;;;11.13;2.40;;;5.70;99.90;;;;;;5029867;28;20037;-79
2022/01/30 05:29:11;;;;;;;18.05;3.55;;;6.20;99.90;;;;;;5012644;28;20501;-78
2022/01/30 05:31:37;;;;;;;15.57;2.80;;;5.80;99.90;;;;;;5030411;28;20025;-78
2022/01/30 05:34:03;;;;;;;15.47;3.13;;;5.80;99.90;;;;;;5027510;28;20498;-78
2022/01/30 05:36:30;;;;;;;21.67;3.90;;;5.80;99.90;;;;;;5013357;28;20017;-79
2022/01/30 05:38:57;;;;;;;8.83;2.00;;;4.90;99.90;;;;;;5012786;28;20064;-79
2022/01/30 05:41:24;;;;;;;38.70;4.03;;;5.80;99.90;;;;;;5024591;28;20025;-79
2022/01/30 05:43:54;;;;;;;16.47;2.33;;;;;;;;;;5029763;28;20029;-78
2022/01/30 05:46:31;;;;;;;17.10;2.20;;;5.60;99.90;;;;;;5031006;28;20017;-78
2022/01/30 05:48:56;;;;;;;13.93;1.73;;;5.60;99.90;;;;;;5011871;28;20037;-78
2022/01/30 05:51:22;;;;;;;16.10;2.37;;;;;;;;;;5012849;28;20107;-78
2022/01/30 05:53:48;;;;;;;14.47;2.83;;;5.40;99.90;;;;;;5030214;28;20029;-78
2022/01/30 05:56:14;;;;;;;12.47;2.63;;;;;;;;;;5030164;28;20572;-79
2022/01/30 05:58:40;;;;;;;14.30;2.13;;;5.50;99.90;;;;;;5029979;28;20037;-78
2022/01/30 06:01:05;;;;;;;16.03;2.53;;;5.40;99.90;;;;;;5030692;28;20078;-79
2022/01/30 06:03:32;;;;;;;14.97;3.27;;;;;;;;;;5024129;28;20045;-78
2022/01/30 06:05:57;;;;;;;16.53;2.87;;;5.30;99.90;;;;;;5028927;28;20092;-78
2022/01/30 06:08:45;;;;;;;20.17;2.90;;;5.70;99.90;;;;;;5030550;28;20033;-78
2022/01/30 06:11:11;;;;;;;21.07;3.53;;;5.40;99.90;;;;;;5029910;28;20060;-78
2022/01/30 06:13:37;;;;;;;19.90;4.07;;;;;;;;;;5029813;28;20040;-77
2022/01/30 06:16:03;;;;;;;24.93;4.17;;;5.60;99.90;;;;;;5030340;28;20021;-77
2022/01/30 06:18:29;;;;;;;28.60;2.77;;;5.20;99.90;;;;;;5009439;28;20048;-78
2022/01/30 06:20:55;;;;;;;25.37;4.67;;;5.90;99.90;;;;;;5029980;28;20118;-78
2022/01/30 06:23:26;;;;;;;25.17;3.90;;;6.00;99.90;;;;;;5030219;28;20033;-78
2022/01/30 06:25:53;;;;;;;20.70;4.00;;;5.90;99.90;;;;;;5011737;28;20040;-79
2022/01/30 06:28:19;;;;;;;16.10;2.53;;;;;;;;;;5030155;28;20113;-78
2022/01/30 06:30:44;;;;;;;17.83;3.40;;;5.70;99.90;;;;;;5029644;28;20710;-78
2022/01/30 06:33:10;;;;;;;17.97;3.00;;;5.60;99.90;;;;;;5029458;28;20039;-78
2022/01/30 06:35:36;;;;;;;23.53;4.20;;;;;;;;;;5029688;28;20031;-78
2022/01/30 06:38:02;;;;;;;20.57;3.33;;;5.80;99.90;;;;;;5011985;28;20494;-78
2022/01/30 06:40:28;;;;;;;27.67;3.93;;;;;;;;;;5012061;28;20075;-78
2022/01/30 06:42:54;;;;;;;18.10;2.97;;;;;;;;;;5029613;28;20087;-78
2022/01/30 06:45:20;;;;;;;19.80;3.57;;;5.80;99.90;;;;;;5012297;28;20103;-79
2022/01/30 06:47:46;;;;;;;21.73;4.20;;;;;;;;;;5024005;28;20026;-79
2022/01/30 06:50:13;;;;;;;26.83;4.43;;;5.50;99.90;;;;;;5029497;28;20064;-79
2022/01/30 06:52:39;;;;;;;20.87;2.90;;;5.50;99.90;;;;;;5029276;28;20025;-78
2022/01/30 06:55:05;;;;;;;19.73;3.47;;;5.40;99.90;;;;;;5029522;28;20025;-78
2022/01/30 06:57:31;;;;;;;24.10;5.47;;;;;;;;;;5026740;28;20030;-79
2022/01/30 06:59:57;;;;;;;17.03;3.63;;;5.80;99.90;;;;;;5028590;28;20038;-79
2022/01/30 07:02:23;;;;;;;15.43;3.47;;;5.10;99.90;;;;;;5029890;28;20039;-78
2022/01/30 07:04:49;;;;;;;19.77;4.27;;;;;;;;;;5029393;28;20479;-78
2022/01/30 07:07:15;;;;;;;20.77;3.63;;;5.30;99.90;;;;;;5029683;28;20026;-78
2022/01/30 07:09:41;;;;;;;19.37;3.67;;;;;;;;;;5011054;28;20020;-78
2022/01/30 07:12:07;;;;;;;23.37;3.47;;;4.90;99.90;;;;;;5027722;28;20471;-78
2022/01/30 07:14:33;;;;;;;21.10;3.43;;;;;;;;;;5027178;28;20033;-78
2022/01/30 07:16:59;;;;;;;23.93;4.43;;;5.40;99.90;;;;;;5029391;28;20395;-79
2022/01/30 07:19:24;;;;;;;18.10;3.63;;;5.50;99.90;;;;;;5011898;28;20033;-78
2022/01/30 07:21:50;;;;;;;21.47;4.63;;;5.60;99.90;;;;;;5029025;28;20033;-78
2022/01/30 07:24:16;;;;;;;24.33;3.80;;;5.60;99.90;;;;;;5006909;28;20025;-78
2022/01/30 07:26:42;;;;;;;20.50;4.73;;;;;;;;;;5029131;28;20079;-78
2022/01/30 07:29:07;;;;;;;21.13;5.63;;;5.70;99.90;;;;;;5027841;28;20025;-73
2022/01/30 07:31:33;;;;;;;24.70;4.90;;;5.40;99.90;;;;;;5029504;28;20064;-73
2022/01/30 07:34:00;;;;;;;19.00;3.83;;;5.40;99.90;;;;;;5017767;28;20421;-74
2022/01/30 07:36:27;;;;;;;19.67;4.07;;;5.20;99.90;;;;;;5021823;28;20030;-74
2022/01/30 07:38:53;;;;;;;22.27;4.00;;;5.20;99.90;;;;;;5026669;28;20033;-74
2022/01/30 07:41:19;;;;;;;16.43;4.70;;;5.20;99.90;;;;;;5029161;28;20029;-74
2022/01/30 07:43:45;;;;;;;24.70;4.50;;;5.00;99.90;;;;;;5011030;28;20036;-74
2022/01/30 07:46:11;;;;;;;20.27;3.70;;;5.20;99.90;;;;;;5029428;28;20033;-74
2022/01/30 07:48:36;;;;;;;18.83;4.23;;;5.00;99.90;;;;;;5034492;28;20032;-74
2022/01/30 07:51:02;;;;;;;22.27;4.13;;;5.10;99.90;;;;;;5033071;28;20057;-74
2022/01/30 07:53:28;;;;;;;16.77;3.80;;;5.40;99.90;;;;;;5037241;28;20032;-74
2022/01/30 07:55:54;;;;;;;24.30;5.30;;;;;;;;;;5031365;28;20044;-74
2022/01/30 07:58:20;;;;;;;21.57;3.57;;;;;;;;;;5032625;28;20025;-74
2022/01/30 08:00:46;;;;;;;20.03;4.37;;;;;;;;;;5030419;28;20036;-74
2022/01/30 08:03:11;;;;;;;26.23;5.97;;;5.40;99.90;;;;;;5032403;28;20124;-74
2022/01/30 08:05:38;;;;;;;21.97;3.63;;;5.30;99.90;;;;;;5031898;28;20536;-74
2022/01/30 08:08:05;;;;;;;27.03;4.47;;;5.60;99.90;;;;;;5032097;28;20175;-74
2022/01/30 08:10:30;;;;;;;21.87;4.53;;;5.50;99.90;;;;;;5032545;28;20037;-74
2022/01/30 08:12:56;;;;;;;30.30;5.07;;;;;;;;;;5026046;28;20041;-74
2022/01/30 08:15:22;;;;;;;20.93;3.70;;;;;;;;;;5025412;28;20053;-74
2022/01/30 08:17:48;;;;;;;23.57;4.33;;;5.30;99.90;;;;;;5031399;28;20037;-74
2022/01/30 08:20:14;;;;;;;22.77;4.70;;;5.50;99.90;;;;;;5032199;28;20037;-75
2022/01/30 08:22:47;;;;;;;21.13;5.50;;;5.40;99.90;;;;;;5013570;28;20117;-74
2022/01/30 08:25:13;;;;;;;19.63;3.83;;;;;;;;;;5032207;28;20090;-74
2022/01/30 08:27:39;;;;;;;24.00;4.20;;;5.50;99.90;;;;;;5012268;28;20359;-74
2022/01/30 08:30:05;;;;;;;23.27;3.77;;;5.30;99.90;;;;;;5032013;28;20108;-74
2022/01/30 08:32:30;;;;;;;18.53;3.57;;;5.40;99.90;;;;;;5031850;28;20498;-74
2022/01/30 08:34:56;;;;;;;17.67;3.73;;;5.30;99.90;;;;;;5013453;28;20060;-74
2022/01/30 08:37:21;;;;;;;16.50;3.67;;;5.30;99.90;;;;;;5031418;28;20116;-74
2022/01/30 08:39:47;;;;;;;30.80;5.33;;;;;;;;;;5013578;28;20041;-74
2022/01/30 08:42:13;;;;;;;20.13;3.73;;;;;;;;;;5031854;28;20037;-74
2022/01/30 08:44:39;;;;;;;22.67;4.47;;;5.10;99.90;;;;;;5031038;28;20037;-76
2022/01/30 08:47:05;;;;;;;19.17;3.37;;;;;;;;;;5031840;28;20029;-74
2022/01/30 08:49:30;;;;;;;19.73;4.60;;;5.50;99.90;;;;;;5021166;28;20029;-74
2022/01/30 08:51:56;;;;;;;21.47;4.03;;;5.70;99.90;;;;;;5028972;28;20422;-74
2022/01/30 08:54:21;;;;;;;15.93;3.27;;;5.50;99.90;;;;;;5032145;28;20100;-74
2022/01/30 08:56:47;;;;;;;32.97;4.93;;;5.70;99.90;;;;;;5013809;28;20386;-74
2022/01/30 08:59:13;;;;;;;28.10;4.47;;;;;;;;;;5029343;28;20043;-74
2022/01/30 09:01:40;;;;;;;22.60;3.87;;;5.60;99.90;;;;;;5030934;28;20025;-73
2022/01/30 09:04:06;;;;;;;23.40;4.67;;;5.80;99.90;;;;;;5022890;28;20030;-74
2022/01/30 09:06:32;;;;;;;22.03;4.87;;;;;;;;;;5009988;28;20034;-74
2022/01/30 09:08:59;;;;;;;25.73;5.00;;;5.80;99.90;;;;;;4993246;28;20081;-74
2022/01/30 09:11:25;;;;;;;25.50;4.90;;;6.20;99.90;;;;;;4994407;28;20022;-74
2022/01/30 09:13:50;;;;;;;21.43;5.33;;;6.00;99.90;;;;;;5011325;28;20062;-79
2022/01/30 09:16:16;;;;;;;26.63;5.10;;;6.30;99.90;;;;;;5030182;28;20052;-74
2022/01/30 09:18:42;;;;;;;27.53;4.30;;;6.30;99.90;;;;;;5030021;28;20459;-73
2022/01/30 09:21:08;;;;;;;27.17;4.40;;;;;;;;;;5029698;28;20026;-75
2022/01/30 09:23:34;;;;;;;26.90;5.60;;;;;;;;;;5030513;28;20026;-74
2022/01/30 09:25:59;;;;;;;26.73;4.73;;;6.50;99.90;;;;;;5012679;28;20032;-74
2022/01/30 09:28:25;;;;;;;29.93;5.13;;;6.50;99.90;;;;;;5031126;28;20408;-74
2022/01/30 09:30:51;;;;;;;28.50;5.03;;;;;;;;;;5015356;28;20045;-75
2022/01/30 09:33:16;;;;;;;24.30;5.40;;;6.50;99.90;;;;;;5011123;28;20026;-75
2022/01/30 09:35:42;;;;;;;23.50;5.30;;;6.50;99.90;;;;;;5010594;28;20042;-74
2022/01/30 09:38:07;;;;;;;20.57;3.87;;;6.30;99.90;;;;;;5011388;28;20045;-74
2022/01/30 09:40:33;;;;;;;40.47;7.17;;;6.30;99.90;;;;;;5011226;28;20467;-74
2022/01/30 09:42:59;;;;;;;25.83;5.17;;;6.30;99.90;;;;;;5010584;28;20061;-74
2022/01/30 09:45:25;;;;;;;28.70;5.93;;;6.20;99.90;;;;;;5018625;28;20486;-74
2022/01/30 09:47:52;;;;;;;25.07;5.00;;;6.40;99.90;;;;;;5020915;28;20079;-73
2022/01/30 09:50:20;;;;;;;28.27;5.33;;;6.50;99.90;;;;;;5029996;28;20050;-74
2022/01/30 09:52:46;;;;;;;36.03;6.40;;;6.60;99.90;;;;;;5027558;28;20037;-74
2022/01/30 09:55:12;;;;;;;27.13;5.77;;;6.60;99.90;;;;;;5010235;28;20124;-74
2022/01/30 09:57:38;;;;;;;24.17;5.60;;;6.70;99.90;;;;;;5012483;28;20022;-75
2022/01/30 10:00:06;;;;;;;26.63;5.07;;;7.00;99.90;;;;;;5030767;28;20036;-74
2022/01/30 10:02:32;;;;;;;24.67;5.90;;;;;;;;;;5030506;28;20064;-74
2022/01/30 10:04:58;;;;;;;30.27;6.27;;;6.80;99.90;;;;;;5012492;28;20033;-74
2022/01/30 10:07:42;;;;;;;28.17;4.80;;;6.90;99.90;;;;;;5030629;28;20386;-74
2022/01/30 10:10:09;;;;;;;28.80;5.03;;;6.90;99.90;;;;;;5028075;28;20033;-74
2022/01/30 10:12:35;;;;;;;27.63;4.20;;;;;;;;;;5010800;28;20613;-74
2022/01/30 10:15:07;;;;;;;24.30;5.03;;;7.20;99.90;;;;;;5030167;28;20040;-74
2022/01/30 10:17:41;;;;;;;31.77;5.37;;;7.40;99.90;;;;;;5027352;28;20751;-72
2022/01/30 10:20:16;;;;;;;29.73;5.15;;;7.60;99.90;;;;;;5012682;28;20132;-74
2022/01/30 10:23:08;;;;;;;24.27;4.03;;;7.40;99.90;;;;;;5029970;28;20029;-74
2022/01/30 10:25:36;;;;;;;30.43;5.13;;;7.50;99.90;;;;;;5024393;28;20025;-75
2022/01/30 10:28:27;;;;;;;26.90;4.23;;;7.40;99.90;;;;;;5019148;28;20033;-75
2022/01/30 10:30:59;;;;;;;18.87;4.47;;;7.60;99.90;;;;;;5027440;28;20021;-76
2022/01/30 10:33:51;;;;;;;28.37;5.83;;;7.60;99.10;;;;;;5029951;28;20025;-75
2022/01/30 10:36:25;;;;;;;27.93;6.00;;;7.50;99.90;;;;;;5029817;28;20022;-75
2022/01/30 10:39:12;;;;;;;37.42;5.53;;;7.60;99.90;;;;;;5029883;28;20445;-75
2022/01/30 10:41:41;;;;;;;31.13;4.63;;;7.60;99.40;;;;;;5029745;28;20049;-75
2022/01/30 10:44:08;;;;;;;34.63;5.37;;;7.50;99.90;;;;;;5030083;28;20106;-75
2022/01/30 10:46:49;;;;;;;27.73;5.30;;;7.50;99.90;;;;;;5017556;28;20034;-75
2022/01/30 10:49:22;;;;;;;19.07;3.67;;;7.40;98.40;;;;;;4992654;28;20101;-75
2022/01/30 10:51:58;;;;;;;27.17;4.60;;;7.50;99.90;;;;;;4992147;28;20388;-75
2022/01/30 10:54:26;;;;;;;24.77;4.27;;;7.30;99.90;;;;;;5010205;28;20026;-75
2022/01/30 10:59:30;;;;;;;31.27;5.67;;;7.30;99.90;;;;;;5022720;28;20065;-68
2022/01/30 11:02:13;;;;;;;32.93;4.87;;;7.30;99.50;;;;;;5036609;28;20087;-69
2022/01/30 11:04:39;;;;;;;21.83;4.90;;;7.30;99.90;;;;;;5048400;28;20079;-69
2022/01/30 11:07:06;;;;;;;21.80;4.87;;;7.80;99.90;;;;;;5048674;28;20478;-68
2022/01/30 11:12:04;;;;;;;30.50;5.53;;;;;;;;;;5033086;28;20029;-70
2022/01/30 11:14:38;;;;;;;20.43;5.30;;;7.60;99.90;;;;;;5028366;28;20022;-68
2022/01/30 11:17:07;;;;;;;24.83;4.60;;;7.40;99.90;;;;;;5028619;28;20030;-68
2022/01/30 11:19:53;;;;;;;22.07;4.60;;;7.60;99.90;;;;;;5028613;28;20063;-68
2022/01/30 11:22:21;;;;;;;24.07;6.00;;;7.70;99.90;;;;;;5045666;28;20037;-68
2022/01/30 11:24:49;;;;;;;24.90;5.73;;;7.60;99.90;;;;;;5045774;28;20025;-68
2022/01/30 11:27:20;;;;;;;28.50;5.33;;;7.70;99.90;;;;;;5022860;28;20045;-68
2022/01/30 11:29:47;;;;;;;27.73;6.50;;;7.90;99.90;;;;;;5026628;28;20034;-68
2022/01/30 11:32:13;;;;;;;27.90;4.93;;;7.80;99.60;;;;;;5032558;28;20383;-68
2022/01/30 11:34:41;;;;;;;25.13;6.07;;;7.90;99.90;;;;;;5021324;28;20179;-69
2022/01/30 11:37:09;;;;;;;23.10;5.43;;;8.10;99.90;;;;;;5026011;28;20059;-68
2022/01/30 11:39:37;;;;;;;28.23;6.03;;;8.40;96.00;;;;;;5017524;28;20475;-68
2022/01/30 11:42:10;;;;;;;19.80;4.60;;;8.30;94.50;;;;;;5012501;28;20033;-68
2022/01/30 11:44:37;;;;;;;23.83;4.88;;;8.30;97.70;;;;;;5011464;28;20088;-68
2022/01/30 11:47:03;;;;;;;28.20;4.33;;;;;;;;;;5017159;28;20061;-68
2022/01/30 11:49:45;;;;;;;29.57;5.80;;;8.30;99.90;;;;;;5012452;28;20029;-68
2022/01/30 11:52:12;;;;;;;23.70;5.43;;;7.90;99.90;;;;;;5032501;28;20028;-68
2022/01/30 11:54:40;;;;;;;23.57;5.23;;;8.10;99.90;;;;;;5051493;28;20059;-68
2022/01/30 11:57:20;;;;;;;22.77;4.40;;;8.30;93.40;;;;;;5049264;28;20051;-68
2022/01/30 11:59:57;;;;;;;25.00;5.43;;;8.10;99.90;;;;;;5042216;28;20037;-68
2022/01/30 12:02:29;;;;;;;15.73;4.00;;;8.10;99.90;;;;;;5051081;28;20025;-68
2022/01/30 12:04:59;;;;;;;27.00;5.50;;;8.00;99.90;;;;;;5045410;28;20033;-68
2022/01/30 12:07:39;;;;;;;21.67;5.10;;;8.20;99.90;;;;;;4994173;28;20511;-68
2022/01/30 12:10:20;;;;;;;32.97;5.10;;;8.20;99.90;;;;;;5017019;28;20136;-68
2022/01/30 12:13:01;;;;;;;29.53;4.87;;;8.00;99.90;;;;;;5042213;28;20442;-68
2022/01/30 12:15:44;;;;;;;22.00;3.57;;;8.10;99.90;;;;;;5051234;28;20053;-68
2022/01/30 12:18:14;;;;;;;25.30;5.23;;;8.40;99.80;;;;;;5051178;28;20033;-68
2022/01/30 12:20:59;;;;;;;30.30;5.83;;;8.40;99.60;;;;;;5051021;28;20032;-69
2022/01/30 12:23:32;;;;;;;22.57;5.73;;;8.40;93.20;;;;;;5051630;28;20032;-68
2022/01/30 12:26:04;;;;;;;34.42;5.82;;;8.30;96.20;;;;;;5051201;28;20048;-68
2022/01/30 12:28:54;;;;;;;21.10;4.43;;;8.30;99.40;;;;;;5020110;28;20025;-68
2022/01/30 12:31:38;;;;;;;21.57;4.20;;;8.30;91.70;;;;;;5006612;28;20491;-69
2022/01/30 12:34:15;;;;;;;20.47;4.07;;;7.80;91.10;;;;;;5011694;28;20026;-68
2022/01/30 12:36:53;;;;;;;26.87;6.03;;;8.50;98.30;;;;;;5010728;28;20080;-69
2022/01/30 12:39:23;;;;;;;27.20;4.50;;;;;;;;;;5011466;28;20135;-69
2022/01/30 12:41:50;;;;;;;27.83;4.63;;;8.40;95.10;;;;;;5010953;28;20108;-69
2022/01/30 12:44:23;;;;;;;23.20;4.63;;;8.00;98.60;;;;;;5011057;28;20172;-69
2022/01/30 12:46:53;;;;;;;23.87;5.30;;;8.60;91.70;;;;;;5010939;28;20022;-68
2022/01/30 12:49:24;;;;;;;23.30;5.23;;;7.60;90.30;;;;;;5033529;28;20025;-69
2022/01/30 12:51:51;;;;;;;25.50;4.33;;;8.70;91.10;;;;;;5050734;28;20021;-69
2022/01/30 12:54:20;;;;;;;20.13;4.43;;;8.80;91.00;;;;;;5051169;28;20039;-68
2022/01/30 12:56:47;;;;;;;15.97;3.77;;;9.20;97.70;;;;;;5050173;28;20025;-68
2022/01/30 12:59:14;;;;;;;24.77;5.67;;;8.60;90.60;;;;;;5049156;28;20060;-68
2022/01/30 13:01:43;;;;;;;16.33;3.40;;;8.50;97.60;;;;;;5004855;28;20372;-68
2022/01/30 13:04:20;;;;;;;24.70;5.63;;;8.50;97.20;;;;;;5004935;28;20033;-68
2022/01/30 13:06:48;;;;;;;26.47;3.93;;;8.40;90.30;;;;;;5026067;28;20358;-69
2022/01/30 13:09:27;;;;;;;19.10;3.93;;;8.40;89.80;;;;;;5019451;28;20112;-68
2022/01/30 13:11:57;;;;;;;26.37;4.63;;;8.30;89.80;;;;;;5029531;28;20029;-68
2022/01/30 13:14:32;;;;;;;25.20;4.67;;;8.30;90.90;;;;;;5030538;28;20374;-69
2022/01/30 13:16:57;;;;;;;22.07;5.23;;;8.30;97.70;;;;;;5030338;28;20021;-69
2022/01/30 13:19:37;;;;;;;30.63;5.10;;;8.40;98.00;;;;;;5027323;28;20049;-68
2022/01/30 13:22:06;;;;;;;23.23;4.70;;;8.40;98.00;;;;;;5021555;28;20029;-69
2022/01/30 13:24:33;;;;;;;21.60;4.07;;;8.50;96.30;;;;;;5020112;28;20026;-68
2022/01/30 13:27:01;;;;;;;21.90;5.00;;;8.50;91.80;;;;;;5019041;28;20498;-69
2022/01/30 13:29:27;;;;;;;12.03;3.77;;;8.30;96.50;;;;;;5021713;28;20375;-68
2022/01/30 13:31:54;;;;;;;22.93;3.97;;;8.30;88.80;;;;;;5024775;28;20022;-69
2022/01/30 13:34:21;;;;;;;21.10;3.07;;;;;;;;;;5001825;28;20022;-69
2022/01/30 13:36:55;;;;;;;24.63;4.33;;;8.00;96.70;;;;;;5021638;28;20021;-69
2022/01/30 13:39:30;;;;;;;17.77;4.60;;;8.30;91.90;;;;;;5020596;28;20037;-68
2022/01/30 13:42:14;;;;;;;24.80;5.43;;;8.10;97.30;;;;;;5018687;28;20026;-69
2022/01/30 13:44:50;;;;;;;23.73;4.95;;;8.30;97.70;;;;;;5025517;28;20044;-68
2022/01/30 13:47:21;;;;;;;25.67;5.00;;;8.10;98.00;;;;;;5029877;28;20029;-69
2022/01/30 13:49:50;;;;;;;25.67;5.57;;;;;;;;;;5027681;28;20394;-68
2022/01/30 13:52:18;;;;;;;22.73;4.57;;;8.00;91.80;;;;;;5028917;28;20112;-68
2022/01/30 13:55:00;;;;;;;25.53;4.27;;;7.90;92.00;;;;;;5029212;28;20087;-68
2022/01/30 13:57:37;;;;;;;23.13;4.30;;;7.70;98.70;;;;;;5025213;28;20034;-68
2022/01/30 14:00:10;;;;;;;16.00;3.57;;;8.20;98.80;;;;;;5021841;28;20032;-68
2022/01/30 14:02:54;;;;;;;22.27;3.55;;;7.50;96.80;;;;;;5012437;28;20458;-68
2022/01/30 14:05:27;;;;;;;28.50;4.25;;;7.60;98.40;;;;;;5010324;28;20026;-69